Time;durP1;ratioP1;P1;durP2;ratioP2;P2;SDS_P1;SDS_P2;PMS_P1;PMS_P2;Temp;Humidity;BMP_temperature;BMP_pressure;BME280_temperature;BME280_humidity;BME280_pressure;Samples;Min_cycle;Max_cycle;Signal;HPM_P1;HPM_P2
2022/01/26 00:05:44;;;;;;;15.77;12.30;;;;;;;;;;5006424;28;20538;-79
2022/01/26 00:06:11;;;;;;;16.52;11.82;;;;;;;;;;5022965;28;20033;-78
2022/01/26 00:08:37;;;;;;;14.63;10.38;;;;;;;;;;5008032;28;20033;-79
2022/01/26 00:11:03;;;;;;;14.88;10.23;;;;;;;;;;5019207;28;20503;-78
2022/01/26 00:13:28;;;;;;;12.65;10.05;;;;;;;;;;5018886;28;20079;-78
2022/01/26 00:15:55;;;;;;;13.73;11.00;;;;;;;;;;5027312;28;20037;-78
2022/01/26 00:18:22;;;;;;;14.40;10.07;;;;;;;;;;5002178;28;20036;-79
2022/01/26 00:20:56;;;;;;;15.38;10.80;;;;;;;;;;5026913;28;20059;-78
2022/01/26 00:26:02;;;;;;;13.23;10.27;;;;;;;;;;5025167;28;20455;-78
2022/01/26 00:39:31;;;;;;;14.65;8.98;;;;;;;;;;5024650;28;20137;-79
2022/01/26 00:41:59;;;;;;;12.68;8.68;;;;;;;;;;5000801;28;20066;-78
2022/01/26 00:44:35;;;;;;;13.00;8.73;;;;;;;;;;5018393;28;20041;-79
2022/01/26 00:47:01;;;;;;;12.02;8.73;;;;;;;;;;5034566;28;20121;-78
2022/01/26 00:49:27;;;;;;;14.73;9.25;;;;;;;;;;5020532;28;20502;-79
2022/01/26 00:51:54;;;;;;;13.00;9.15;;;;;;;;;;5016980;28;20037;-78
2022/01/26 00:54:19;;;;;;;11.02;7.55;;;;;;;;;;5017650;28;20064;-78
2022/01/26 00:56:45;;;;;;;11.43;8.40;;;;;;;;;;5033931;28;20487;-79
2022/01/26 00:59:11;;;;;;;14.65;9.57;;;;;;;;;;5038512;28;20027;-79
2022/01/26 01:01:37;;;;;;;11.05;8.18;;;;;;;;;;5027363;28;20052;-79
2022/01/26 01:04:02;;;;;;;10.60;8.48;;;;;;;;;;5007111;28;20045;-78
2022/01/26 01:06:33;;;;;;;11.25;8.48;;;;;;;;;;5045142;28;20094;-79
2022/01/26 01:08:58;;;;;;;9.70;7.68;;;;;;;;;;5015618;28;20082;-79
2022/01/26 01:11:27;;;;;;;10.32;8.27;;;;;;;;;;5024486;28;20472;-79
2022/01/26 01:13:53;;;;;;;9.95;8.55;;;;;;;;;;5040567;28;20068;-79
2022/01/26 01:16:20;;;;;;;10.40;7.68;;;;;;;;;;5040739;28;20496;-79
2022/01/26 01:29:22;;;;;;;9.48;7.28;;;;;;;;;;5044665;28;20470;-79
2022/01/26 01:34:15;;;;;;;9.20;6.95;;;;;;;;;;5035836;28;20024;-79
2022/01/26 01:36:44;;;;;;;11.07;7.22;;;;;;;;;;5020349;28;20567;-79
2022/01/26 01:39:09;;;;;;;9.30;7.40;;;;;;;;;;5004607;28;20563;-79
2022/01/26 01:41:37;;;;;;;8.93;6.40;;;;;;;;;;5004570;28;20125;-79
2022/01/26 01:44:04;;;;;;;9.52;7.10;;;;;;;;;;5004404;28;20506;-79
2022/01/26 01:46:30;;;;;;;9.52;7.13;;;;;;;;;;5004196;28;20031;-79
2022/01/26 01:48:55;;;;;;;8.68;6.82;;;;;;;;;;5020435;28;20037;-79
2022/01/26 01:51:27;;;;;;;9.35;6.75;;;;;;;;;;4987914;28;20045;-79
2022/01/26 01:53:53;;;;;;;8.00;6.22;;;;;;;;;;5021987;28;20098;-79
2022/01/26 01:56:22;;;;;;;9.80;6.35;;;;;;;;;;5020264;28;20041;-80
2022/01/26 01:58:48;;;;;;;8.13;6.57;;;;;;;;;;5006151;28;20035;-80
2022/01/26 02:01:14;;;;;;;11.30;6.97;;;;;;;;;;5003655;28;20029;-79
2022/01/26 02:03:39;;;;;;;8.48;6.53;;;;;;;;;;5003929;28;20060;-79
2022/01/26 02:06:05;;;;;;;8.77;6.32;;;;;;;;;;5003655;28;20037;-79
2022/01/26 02:08:30;;;;;;;9.40;6.65;;;;;;;;;;4987728;28;20053;-79
2022/01/26 02:10:56;;;;;;;6.78;5.72;;;;;;;;;;5036331;28;20047;-79
2022/01/26 02:13:33;;;;;;;8.57;6.32;;;;;;;;;;5003678;28;20047;-79
2022/01/26 03:01:59;;;;;;;5.82;4.90;;;;;;;;;;5020383;28;20407;-79
2022/01/26 03:09:56;;;;;;;7.05;5.18;;;;;;;;;;5009895;28;20431;-79
2022/01/26 03:12:59;;;;;;;7.00;5.07;;;;;;;;;;5022263;28;20554;-79
2022/01/26 03:15:31;;;;;;;6.13;4.93;;;;;;;;;;5023842;28;20056;-78
2022/01/26 03:20:25;;;;;;;6.05;5.10;;;;;;;;;;5019466;28;20128;-78
2022/01/26 03:35:46;;;;;;;6.78;5.20;;;;;;;;;;5018227;28;20068;-79
2022/01/26 03:38:22;;;;;;;7.60;5.35;;;;;;;;;;5004985;28;20025;-79
2022/01/26 03:40:57;;;;;;;6.15;4.68;;;;;;;;;;5019590;28;20114;-79
2022/01/26 03:43:22;;;;;;;7.07;5.30;;;;;;;;;;5004718;28;20503;-79
2022/01/26 03:45:47;;;;;;;6.78;4.95;;;;;;;;;;5015513;28;20045;-79
2022/01/26 03:48:13;;;;;;;6.22;5.03;;;;;;;;;;5034572;28;20037;-78
2022/01/26 03:50:38;;;;;;;6.93;4.65;;;;;;;;;;5018319;28;20109;-79
2022/01/26 03:53:04;;;;;;;5.35;4.45;;;;;;;;;;5017789;28;20041;-78
2022/01/26 03:55:29;;;;;;;6.40;4.88;;;;;;;;;;5017881;28;20049;-79
2022/01/26 03:57:55;;;;;;;6.15;4.78;;;;;;;;;;5017876;28;20037;-79
2022/01/26 04:00:20;;;;;;;6.45;4.63;;;;;;;;;;5004529;28;20040;-79
2022/01/26 04:02:46;;;;;;;6.32;4.45;;;;;;;;;;5017734;28;20060;-79
2022/01/26 04:05:12;;;;;;;6.10;4.78;;;;;;;;;;5034455;28;20047;-79
2022/01/26 04:07:38;;;;;;;7.20;4.95;;;;;;;;;;5017766;28;20403;-79
2022/01/26 04:10:16;;;;;;;6.00;5.00;;;;;;;;;;5001453;28;20062;-79
2022/01/26 04:12:41;;;;;;;5.50;4.40;;;;;;;;;;5020958;28;20453;-79
2022/01/26 04:15:17;;;;;;;7.07;5.10;;;;;;;;;;5001467;28;20067;-79
2022/01/26 04:17:43;;;;;;;6.65;5.30;;;;;;;;;;5004140;28;20398;-78
2022/01/26 04:20:11;;;;;;;6.80;4.88;;;;;;;;;;5001542;28;20033;-79
2022/01/26 04:22:49;;;;;;;6.30;4.43;;;;;;;;;;5001716;28;20033;-79
2022/01/26 04:25:19;;;;;;;6.20;4.50;;;;;;;;;;5021162;28;20415;-79
2022/01/26 04:27:48;;;;;;;7.28;5.22;;;;;;;;;;5002467;28;20029;-79
2022/01/26 04:30:14;;;;;;;7.68;4.88;;;;;;;;;;5002223;28;20037;-78
2022/01/26 04:32:39;;;;;;;7.25;4.88;;;;;;;;;;5000584;28;20036;-79
2022/01/26 04:35:06;;;;;;;6.85;4.65;;;;;;;;;;5028532;28;20028;-79
2022/01/26 04:40:05;;;;;;;7.05;5.30;;;;;;;;;;5020774;28;20047;-78
2022/01/26 04:42:44;;;;;;;8.48;5.47;;;;;;;;;;5038560;28;20060;-79
2022/01/26 04:45:11;;;;;;;6.55;5.15;;;;;;;;;;5005150;28;20410;-78
2022/01/26 04:47:36;;;;;;;7.72;4.53;;;;;;;;;;5020604;28;20036;-78
2022/01/26 04:50:03;;;;;;;7.13;5.40;;;;;;;;;;5037658;28;20037;-79
2022/01/26 04:52:28;;;;;;;8.05;5.72;;;;;;;;;;5003713;28;20124;-79
2022/01/26 04:54:54;;;;;;;7.70;5.43;;;;;;;;;;5037045;28;20040;-79
2022/01/26 04:57:19;;;;;;;6.70;5.30;;;;;;;;;;5004166;28;20032;-78
2022/01/26 04:59:44;;;;;;;8.95;5.68;;;;;;;;;;5025150;28;20033;-78
2022/01/26 05:02:10;;;;;;;7.10;5.22;;;;;;;;;;5000989;28;20033;-79
2022/01/26 05:04:35;;;;;;;8.88;5.65;;;;;;;;;;4984622;28;20063;-79
2022/01/26 05:07:01;;;;;;;7.60;5.55;;;;;;;;;;5000658;28;20037;-79
2022/01/26 05:09:26;;;;;;;7.60;5.47;;;;;;;;;;5000467;28;20041;-79
2022/01/26 05:11:54;;;;;;;8.25;5.63;;;;;;;;;;5017528;28;20127;-79
2022/01/26 05:14:20;;;;;;;7.85;5.20;;;;;;;;;;5017501;28;20032;-79
2022/01/26 05:16:45;;;;;;;8.82;6.05;;;;;;;;;;5001216;28;20040;-79
2022/01/26 05:19:11;;;;;;;7.30;5.18;;;;;;;;;;5000710;28;20045;-79
2022/01/26 05:21:36;;;;;;;7.22;5.03;;;;;;;;;;5016938;28;20048;-78
2022/01/26 05:24:02;;;;;;;6.10;4.63;;;;;;;;;;5017268;28;20037;-79
2022/01/26 05:26:28;;;;;;;8.10;5.20;;;;;;;;;;5017388;28;20040;-79
2022/01/26 05:28:53;;;;;;;7.88;5.75;;;;;;;;;;5000330;28;20116;-79
2022/01/26 05:31:19;;;;;;;6.90;5.20;;;;;;;;;;5016699;28;20041;-78
2022/01/26 05:33:44;;;;;;;8.20;5.97;;;;;;;;;;5017037;28;20117;-78
2022/01/26 05:36:10;;;;;;;9.43;6.68;;;;;;;;;;5020133;28;20029;-79
2022/01/26 05:38:36;;;;;;;7.50;5.40;;;;;;;;;;5003773;28;20490;-78
2022/01/26 05:41:02;;;;;;;8.80;5.90;;;;;;;;;;5003886;28;20055;-78
2022/01/26 05:43:31;;;;;;;8.93;6.30;;;;;;;;;;5020020;28;20029;-78
2022/01/26 05:46:02;;;;;;;9.60;7.05;;;;;;;;;;5019465;28;20041;-78
2022/01/26 05:48:27;;;;;;;8.77;6.63;;;;;;;;;;5005579;28;20033;-79
2022/01/26 05:50:56;;;;;;;8.48;6.38;;;;;;;;;;5004219;28;20033;-78
2022/01/26 05:53:21;;;;;;;9.95;7.40;;;;;;;;;;5004308;28;20045;-78
2022/01/26 05:55:51;;;;;;;9.05;6.68;;;;;;;;;;5020286;28;20869;-78
2022/01/26 05:58:17;;;;;;;8.45;6.80;;;;;;;;;;5020835;28;20045;-78
2022/01/26 06:00:43;;;;;;;9.18;6.70;;;;;;;;;;5020014;28;20443;-78
2022/01/26 06:03:09;;;;;;;9.73;6.35;;;;;;;;;;5003828;28;20056;-79
2022/01/26 06:05:34;;;;;;;10.20;6.55;;;;;;;;;;5019978;28;20495;-79
2022/01/26 06:08:00;;;;;;;10.40;7.32;;;;;;;;;;5020109;28;20056;-78
2022/01/26 06:10:25;;;;;;;13.35;7.68;;;;;;;;;;5003943;28;20043;-79
2022/01/26 06:12:50;;;;;;;11.38;7.43;;;;;;;;;;5020037;28;20036;-78
2022/01/26 06:15:16;;;;;;;10.48;6.95;;;;;;;;;;5019768;28;20037;-79
2022/01/26 06:17:42;;;;;;;12.75;7.95;;;;;;;;;;5039644;28;20040;-79
2022/01/26 06:20:08;;;;;;;12.40;8.45;;;;;;;;;;5023101;28;20036;-80
2022/01/26 06:22:33;;;;;;;11.38;8.05;;;;;;;;;;5039500;28;20094;-80
2022/01/26 06:25:05;;;;;;;13.02;9.20;;;;;;;;;;5006763;28;20037;-79
2022/01/26 06:27:30;;;;;;;13.48;8.82;;;;;;;;;;5025100;28;20536;-80
2022/01/26 06:29:56;;;;;;;13.13;8.57;;;;;;;;;;5022921;28;20036;-79
2022/01/26 06:32:22;;;;;;;13.32;8.65;;;;;;;;;;5022790;28;20040;-79
2022/01/26 06:34:48;;;;;;;14.05;9.20;;;;;;;;;;5019322;28;20033;-79
2022/01/26 06:37:16;;;;;;;13.82;9.18;;;;;;;;;;5003054;28;20564;-79
2022/01/26 06:39:42;;;;;;;12.82;8.93;;;;;;;;;;5003151;28;20025;-79
2022/01/26 06:42:13;;;;;;;13.68;9.20;;;;;;;;;;5003413;28;20044;-80
2022/01/26 06:44:50;;;;;;;12.20;8.50;;;;;;;;;;5025920;28;20040;-79
2022/01/26 06:47:35;;;;;;;14.13;8.85;;;;;;;;;;5041186;28;20048;-79
2022/01/26 06:50:02;;;;;;;14.93;9.45;;;;;;;;;;5043469;28;20036;-79
2022/01/26 06:52:34;;;;;;;13.20;8.85;;;;;;;;;;5006961;28;20531;-81
2022/01/26 06:55:06;;;;;;;13.27;9.75;;;;;;;;;;5028747;28;20101;-79
2022/01/26 06:57:32;;;;;;;15.50;8.68;;;;;;;;;;5013027;28;20111;-76
2022/01/26 06:59:57;;;;;;;13.40;8.45;;;;;;;;;;5030597;28;20036;-77
2022/01/26 07:02:23;;;;;;;14.38;8.90;;;;;;;;;;5039407;28;20033;-75
2022/01/26 07:04:49;;;;;;;13.30;9.10;;;;;;;;;;5004731;28;20073;-75
2022/01/26 07:07:14;;;;;;;15.57;9.60;;;;;;;;;;5047716;28;20078;-76
2022/01/26 07:09:40;;;;;;;14.70;9.60;;;;;;;;;;5037738;28;20028;-76
2022/01/26 07:12:05;;;;;;;17.83;9.88;;;;;;;;;;5055335;28;20040;-76
2022/01/26 07:22:42;;;;;;;19.95;9.88;;;;;;;;;;5044677;28;20041;-76
2022/01/26 07:25:08;;;;;;;16.52;10.23;;;;;;;;;;5036515;28;20533;-75
2022/01/26 07:27:33;;;;;;;16.77;10.43;;;;;;;;;;5045049;28;20037;-76
2022/01/26 07:30:00;;;;;;;22.20;10.50;;;;;;;;;;5023749;28;20452;-75
2022/01/26 07:32:27;;;;;;;21.13;12.23;;;;;;;;;;5029325;28;20040;-76
2022/01/26 07:34:53;;;;;;;16.67;9.35;;;;;;;;;;5038659;28;20043;-75
2022/01/26 07:37:20;;;;;;;21.50;12.20;;;;;;;;;;5035022;28;20048;-75
2022/01/26 07:40:00;;;;;;;21.77;11.52;;;;;;;;;;5018770;28;20036;-75
2022/01/26 07:42:25;;;;;;;18.30;9.35;;;;;;;;;;5037120;28;20048;-76
2022/01/26 07:44:50;;;;;;;20.90;11.50;;;;;;;;;;5022975;28;20033;-76
2022/01/26 07:47:16;;;;;;;20.00;10.02;;;;;;;;;;5019039;28;20060;-75
2022/01/26 07:49:42;;;;;;;20.13;11.45;;;;;;;;;;5022758;28;20043;-75
2022/01/26 07:52:07;;;;;;;18.73;10.85;;;;;;;;;;5021114;28;20048;-75
2022/01/26 07:54:33;;;;;;;17.15;10.45;;;;;;;;;;5044893;28;20091;-76
2022/01/26 07:56:58;;;;;;;19.70;11.57;;;;;;;;;;5054361;28;20051;-75
2022/01/26 07:59:24;;;;;;;18.20;10.73;;;;;;;;;;5016832;28;20033;-75
2022/01/26 08:01:49;;;;;;;19.60;11.13;;;;;;;;;;5017310;28;20402;-76
2022/01/26 08:04:14;;;;;;;17.35;10.68;;;;;;;;;;5017589;28;20033;-76
2022/01/26 08:06:40;;;;;;;18.55;9.82;;;;;;;;;;5034217;28;20376;-76
2022/01/26 08:09:06;;;;;;;16.25;10.55;;;;;;;;;;5034244;28;20430;-76
2022/01/26 08:11:31;;;;;;;17.33;9.32;;;;;;;;;;5017871;28;20486;-75
2022/01/26 08:13:58;;;;;;;16.52;9.90;;;;;;;;;;5001154;28;20051;-76
2022/01/26 08:16:23;;;;;;;17.15;9.35;;;;;;;;;;5001509;28;20048;-75
2022/01/26 08:18:49;;;;;;;14.65;9.63;;;;;;;;;;5033447;28;20491;-75
2022/01/26 08:21:15;;;;;;;16.13;10.02;;;;;;;;;;4999310;28;20063;-75
2022/01/26 08:23:43;;;;;;;15.85;9.07;;;;;;;;;;5018295;28;20480;-75
2022/01/26 08:26:09;;;;;;;18.02;10.38;;;;;;;;;;5018121;28;20047;-75
2022/01/26 08:28:38;;;;;;;19.30;10.32;;;;;;;;;;5017697;28;20029;-75
2022/01/26 08:31:04;;;;;;;21.40;9.93;;;;;;;;;;4985736;28;20376;-75
2022/01/26 08:33:30;;;;;;;15.88;9.80;;;;;;;;;;5017314;28;20036;-75
2022/01/26 08:35:55;;;;;;;21.40;10.98;;;;;;;;;;5035540;28;20048;-75
2022/01/26 08:38:21;;;;;;;17.20;11.05;;;;;;;;;;5054005;28;20074;-75
2022/01/26 08:40:47;;;;;;;14.52;9.73;;;;;;;;;;5037368;28;20047;-75
2022/01/26 08:43:13;;;;;;;15.63;10.70;;;;;;;;;;5032339;28;20064;-75
2022/01/26 08:45:39;;;;;;;19.05;10.02;;;;;;;;;;5029095;28;20041;-75
2022/01/26 08:48:05;;;;;;;18.70;10.40;;;;;;;;;;5020784;28;20037;-77
2022/01/26 08:50:30;;;;;;;17.85;11.23;;;;;;;;;;5017106;28;20094;-75
2022/01/26 08:52:55;;;;;;;16.58;10.13;;;;;;;;;;5051384;28;20120;-75
2022/01/26 08:55:21;;;;;;;16.23;9.63;;;;;;;;;;5032692;28;20052;-74
2022/01/26 08:57:46;;;;;;;18.02;11.25;;;;;;;;;;5034429;28;20037;-74
2022/01/26 09:00:12;;;;;;;16.42;10.13;;;;;;;;;;5034488;28;20483;-75
2022/01/26 09:02:38;;;;;;;17.80;10.13;;;;;;;;;;5034090;28;20477;-75
2022/01/26 09:05:08;;;;;;;20.42;10.43;;;;;;;;;;5033629;28;20384;-74
2022/01/26 09:07:33;;;;;;;20.45;11.68;;;;;;;;;;5034201;28;20029;-75
2022/01/26 09:10:01;;;;;;;22.63;12.13;;;;;;;;;;5018085;28;20037;-75
2022/01/26 09:12:27;;;;;;;22.45;12.25;;;;;;;;;;5038723;28;20032;-75
2022/01/26 09:14:52;;;;;;;19.40;10.63;;;;;;;;;;5035663;28;20486;-76
2022/01/26 09:17:19;;;;;;;19.52;11.77;;;;;;;;;;5058669;28;20033;-75
2022/01/26 09:19:45;;;;;;;26.02;10.75;;;;;;;;;;5038339;28;20707;-75
2022/01/26 09:22:12;;;;;;;19.33;11.00;;;;;;;;;;5039451;28;20040;-74
2022/01/26 09:24:38;;;;;;;25.38;11.18;;;;;;;;;;5020677;28;20072;-75
2022/01/26 09:27:04;;;;;;;21.25;10.32;;;;;;;;;;5020796;28;20033;-75
2022/01/26 09:29:30;;;;;;;21.25;10.73;;;;;;;;;;5009885;28;20039;-74
2022/01/26 09:31:56;;;;;;;22.45;11.25;;;;;;;;;;5024832;28;20033;-73
2022/01/26 09:34:22;;;;;;;17.48;10.13;;;;;;;;;;5043680;28;20048;-75
2022/01/26 09:36:48;;;;;;;24.48;10.57;;;;;;;;;;5041315;28;20085;-75
2022/01/26 09:39:17;;;;;;;19.58;10.98;;;;;;;;;;5063857;28;20037;-75
2022/01/26 09:41:47;;;;;;;18.88;10.20;;;;;;;;;;5024822;28;20242;-75
2022/01/26 09:44:12;;;;;;;24.33;10.05;;;;;;;;;;5009472;28;20519;-75
2022/01/26 09:46:39;;;;;;;25.90;12.50;;;;;;;;;;5024100;28;20111;-74
2022/01/26 09:49:05;;;;;;;22.55;12.15;;;;;;;;;;5005346;28;20402;-74
2022/01/26 09:51:33;;;;;;;20.63;11.43;;;;;;;;;;5021945;28;20033;-75
2022/01/26 09:54:07;;;;;;;24.45;11.98;;;;;;;;;;5024004;28;20048;-75
2022/01/26 09:56:32;;;;;;;20.85;11.13;;;;;;;;;;5036046;28;20119;-74
2022/01/26 09:58:58;;;;;;;23.55;11.23;;;;;;;;;;5035914;28;20479;-74
2022/01/26 10:01:23;;;;;;;29.38;12.52;;;;;;;;;;5031303;28;20471;-74
2022/01/26 10:03:50;;;;;;;21.10;10.85;;;;;;;;;;5023461;28;20037;-75
2022/01/26 10:06:26;;;;;;;19.08;10.98;;;;;;;;;;5025395;28;20041;-74
2022/01/26 10:09:01;;;;;;;20.48;11.27;;;;;;;;;;5022023;28;20495;-75
2022/01/26 10:17:24;;;;;;;19.60;10.57;;;;;;;;;;5039951;28;20029;-75
2022/01/26 10:20:00;;;;;;;21.58;10.52;;;;;;;;;;5038592;28;20519;-74
2022/01/26 10:22:26;;;;;;;17.00;10.52;;;;;;;;;;5023646;28;20037;-74
2022/01/26 10:25:07;;;;;;;16.27;10.05;;;;;;;;;;5017488;28;20041;-74
2022/01/26 10:27:40;;;;;;;18.10;9.77;;;;;;;;;;5058341;28;20081;-74
2022/01/26 10:30:07;;;;;;;15.18;10.30;;;;;;;;;;5021923;28;20519;-74
2022/01/26 10:32:33;;;;;;;24.30;11.88;;;;;;;;;;5021660;28;20078;-74
2022/01/26 10:35:02;;;;;;;20.90;12.23;;;;;;;;;;5026403;28;20037;-75
2022/01/26 10:37:28;;;;;;;21.25;12.68;;;;;;;;;;5038181;28;20128;-75
2022/01/26 10:39:57;;;;;;;20.45;12.05;;;;;;;;;;5015051;28;20085;-76
2022/01/26 10:42:24;;;;;;;19.90;11.38;;;;;;;;;;5042357;28;20060;-75
2022/01/26 10:45:33;;;;;;;19.23;12.88;;;;;;;;;;5036000;28;20494;-76
2022/01/26 10:47:43;;;;;;;23.20;12.68;;;;;;;;;;5027556;28;20515;-76
2022/01/26 10:53:22;;;;;;;18.88;11.35;;;;;;;;;;5008880;28;20053;-76
2022/01/26 10:55:48;;;;;;;17.98;10.75;;;;;;;;;;5041769;28;20041;-76
2022/01/26 10:58:16;;;;;;;17.35;9.95;;;;;;;;;;5038291;28;20036;-76
2022/01/26 11:00:42;;;;;;;19.02;10.52;;;;;;;;;;5042132;28;20098;-74
2022/01/26 11:03:09;;;;;;;18.17;9.90;;;;;;;;;;5042115;28;20499;-76
2022/01/26 11:05:35;;;;;;;19.85;11.25;;;;;;;;;;5041849;28;20029;-76
2022/01/26 11:08:00;;;;;;;19.30;10.30;;;;;;;;;;5043311;28;20047;-78
2022/01/26 11:10:33;;;;;;;17.13;10.88;;;;;;;;;;5042521;28;20109;-77
2022/01/26 11:12:59;;;;;;;19.92;11.07;;;;;;;;;;5023644;28;20419;-78
2022/01/26 11:15:24;;;;;;;17.33;10.52;;;;;;;;;;5021657;28;20040;-77
2022/01/26 11:17:51;;;;;;;15.85;10.75;;;;;;;;;;5022030;28;20033;-78
2022/01/26 11:20:29;;;;;;;19.48;10.52;;;;;;;;;;5022768;28;20502;-80
2022/01/26 11:22:59;;;;;;;18.70;10.70;;;;;;;;;;5006608;28;20490;-76
2022/01/26 11:25:29;;;;;;;25.73;12.18;;;;;;;;;;5039568;28;20052;-76
2022/01/26 11:27:55;;;;;;;20.17;9.73;;;;;;;;;;5040989;28;20033;-76
2022/01/26 11:30:31;;;;;;;19.00;10.77;;;;;;;;;;5039650;28;20040;-76
2022/01/26 11:32:59;;;;;;;17.05;10.27;;;;;;;;;;5013589;28;20043;-77
2022/01/26 11:35:27;;;;;;;24.65;12.40;;;;;;;;;;5024863;28;20407;-77
2022/01/26 11:38:39;;;;;;;19.48;11.38;;;;;;;;;;5024464;28;20381;-77
2022/01/26 11:46:54;;;;;;;27.58;19.10;;;;;;;;;;5013895;28;20039;-76
2022/01/26 11:49:35;;;;;;;31.40;20.05;;;;;;;;;;5024704;28;20045;-76
2022/01/26 11:52:01;;;;;;;27.02;20.45;;;;;;;;;;5060881;28;20395;-77
2022/01/26 11:54:51;;;;;;;31.45;19.00;;;;;;;;;;5009944;28;20135;-76
2022/01/26 11:57:19;;;;;;;32.67;18.65;;;;;;;;;;5027834;28;20120;-76
2022/01/26 11:59:52;;;;;;;30.15;17.77;;;;;;;;;;5041351;28;20406;-77
2022/01/26 12:02:36;;;;;;;26.45;17.13;;;;;;;;;;5018792;28;20041;-76
2022/01/26 12:05:05;;;;;;;26.42;17.85;;;;;;;;;;5012740;28;20048;-76
2022/01/26 12:07:31;;;;;;;26.05;16.50;;;;;;;;;;5035079;28;20029;-77
2022/01/26 12:09:57;;;;;;;25.33;14.02;;;;;;;;;;5034846;28;20037;-77
2022/01/26 12:12:23;;;;;;;20.55;14.18;;;;;;;;;;5034546;28;20489;-77
2022/01/26 12:14:59;;;;;;;22.67;14.00;;;;;;;;;;5037984;28;20041;-76
2022/01/26 12:17:29;;;;;;;23.48;14.52;;;;;;;;;;5037097;28;20040;-77
2022/01/26 12:36:52;;;;;;;19.85;11.90;;;;;;;;;;5032305;28;20112;-76
2022/01/26 12:41:11;;;;;;;21.60;12.60;;;;;;;;;;5025576;28;20112;-77
2022/01/26 12:42:23;;;;;;;17.58;12.07;;;;;;;;;;5011722;28;20134;-77
2022/01/26 12:44:58;;;;;;;17.90;11.50;;;;;;;;;;5030925;28;20028;-77
2022/01/26 12:47:28;;;;;;;16.05;10.90;;;;;;;;;;5043326;28;20047;-77
2022/01/26 12:49:55;;;;;;;17.73;11.23;;;;;;;;;;5060548;28;20044;-77
2022/01/26 12:52:20;;;;;;;18.83;10.98;;;;;;;;;;5042171;28;20048;-77
2022/01/26 12:54:46;;;;;;;19.17;11.02;;;;;;;;;;5034758;28;20491;-77
2022/01/26 12:57:13;;;;;;;16.75;11.50;;;;;;;;;;5021741;28;20151;-76
2022/01/26 12:59:38;;;;;;;17.05;11.65;;;;;;;;;;5003401;28;20028;-76
2022/01/26 13:02:05;;;;;;;17.67;12.35;;;;;;;;;;5049344;28;20049;-76
2022/01/26 13:04:30;;;;;;;21.52;12.27;;;;;;;;;;5033388;28;20381;-76
2022/01/26 13:06:56;;;;;;;19.48;11.77;;;;;;;;;;5050006;28;20041;-76
2022/01/26 13:09:43;;;;;;;19.73;11.82;;;;;;;;;;5050186;28;20037;-76
2022/01/26 13:12:10;;;;;;;16.92;12.48;;;;;;;;;;5033380;28;20036;-76
2022/01/26 13:14:47;;;;;;;17.90;10.73;;;;;;;;;;5017441;28;20091;-76
2022/01/26 13:41:18;;;;;;;16.00;9.65;;;;;;;;;;5051051;28;20037;-76
2022/01/26 13:49:53;;;;;;;12.82;8.90;;;;;;;;;;5021345;28;20041;-76
2022/01/26 13:59:55;;;;;;;13.95;9.18;;;;;;;;;;5016428;28;20033;-76
2022/01/26 14:02:21;;;;;;;13.15;9.13;;;;;;;;;;5022377;28;20060;-76
2022/01/26 14:04:47;;;;;;;12.82;8.77;;;;;;;;;;5032908;28;20044;-76
2022/01/26 14:07:12;;;;;;;12.25;8.98;;;;;;;;;;5036214;28;20040;-77
2022/01/26 14:09:38;;;;;;;13.27;9.13;;;;;;;;;;5019972;28;20075;-75
2022/01/26 14:12:05;;;;;;;13.13;9.65;;;;;;;;;;5007915;28;20045;-74
2022/01/26 14:14:35;;;;;;;13.90;9.20;;;;;;;;;;5035615;28;20550;-74
2022/01/26 14:17:02;;;;;;;13.32;9.52;;;;;;;;;;5040870;28;20036;-74
2022/01/26 14:19:36;;;;;;;12.27;9.68;;;;;;;;;;5030894;28;20037;-74
2022/01/26 14:24:51;;;;;;;11.95;8.40;;;;;;;;;;5027415;28;20032;-74
2022/01/26 14:27:17;;;;;;;13.88;9.80;;;;;;;;;;5058988;28;20086;-74
2022/01/26 14:30:16;;;;;;;15.25;9.10;;;;;;;;;;5056384;28;20048;-73
2022/01/26 14:32:56;;;;;;;12.32;8.57;;;;;;;;;;5042526;28;20073;-74
2022/01/26 15:35:28;;;;;;;12.13;8.05;;;;;;;;;;5027755;28;20033;-75
2022/01/26 15:40:24;;;;;;;14.07;8.80;;;;;;;;;;5052040;28;20029;-74
2022/01/26 15:43:26;;;;;;;12.18;8.60;;;;;;;;;;5033887;28;20107;-74
2022/01/26 15:51:07;;;;;;;13.85;8.57;;;;;;;;;;5044125;28;20028;-75
2022/01/26 15:59:02;;;;;;;15.25;7.95;;;;;;;;;;5056798;28;20032;-76
2022/01/26 16:12:56;;;;;;;12.20;7.85;;;;;;;;;;4971000;28;20042;-76
2022/01/26 18:15:30;;;;;;;11.05;8.27;;;;;;;;;;5028525;28;20025;-76
2022/01/26 18:18:03;;;;;;;13.75;8.57;;;;;;;;;;5044684;28;20033;-76
2022/01/26 18:49:57;;;;;;;13.85;8.20;;;;;;;;;;5024788;28;20041;-76
2022/01/26 18:52:22;;;;;;;12.27;9.05;;;;;;;;;;5034762;28;20052;-76
2022/01/26 18:54:48;;;;;;;12.20;8.77;;;;;;;;;;5035448;28;20132;-76
2022/01/26 18:57:13;;;;;;;12.07;8.65;;;;;;;;;;5053284;28;20052;-76
2022/01/26 18:59:39;;;;;;;13.40;9.57;;;;;;;;;;5019078;28;20037;-76
2022/01/26 19:02:04;;;;;;;12.60;9.57;;;;;;;;;;5035269;28;20063;-76
2022/01/26 19:04:36;;;;;;;12.45;8.55;;;;;;;;;;5019113;28;20061;-76
2022/01/26 19:07:02;;;;;;;10.88;8.35;;;;;;;;;;5036232;28;20043;-76
2022/01/26 19:09:31;;;;;;;11.30;8.82;;;;;;;;;;5034770;28;20471;-76
2022/01/26 19:11:57;;;;;;;13.10;9.40;;;;;;;;;;5052817;28;20063;-76
2022/01/26 19:14:26;;;;;;;11.38;9.18;;;;;;;;;;5018679;28;20037;-76
2022/01/26 19:17:04;;;;;;;13.73;10.18;;;;;;;;;;5003872;28;20032;-76
2022/01/26 19:22:14;;;;;;;12.15;8.88;;;;;;;;;;5038997;28;20080;-76
2022/01/26 19:30:01;;;;;;;12.73;8.88;;;;;;;;;;5056443;28;20064;-76
2022/01/26 19:51:11;;;;;;;15.32;9.35;;;;;;;;;;5037167;28;20068;-73
2022/01/26 19:53:37;;;;;;;16.45;9.45;;;;;;;;;;5001469;28;20043;-76
2022/01/26 19:56:02;;;;;;;12.57;8.93;;;;;;;;;;4985470;28;20033;-76
2022/01/26 19:58:27;;;;;;;13.90;8.95;;;;;;;;;;5018366;28;20110;-76
2022/01/26 20:00:53;;;;;;;12.45;8.85;;;;;;;;;;5034321;28;20107;-76
2022/01/26 20:03:20;;;;;;;12.60;8.75;;;;;;;;;;5017873;28;20110;-76
2022/01/26 20:05:47;;;;;;;14.10;9.73;;;;;;;;;;5001697;28;20033;-76
2022/01/26 20:08:30;;;;;;;11.55;8.95;;;;;;;;;;5001904;28;20124;-76
2022/01/26 20:11:03;;;;;;;14.10;9.20;;;;;;;;;;5036706;28;20456;-76
2022/01/26 20:13:32;;;;;;;12.18;8.43;;;;;;;;;;5035242;28;20418;-76
2022/01/26 20:15:59;;;;;;;12.80;8.88;;;;;;;;;;5029540;28;20122;-76
2022/01/26 20:18:24;;;;;;;15.98;8.75;;;;;;;;;;5033852;28;20041;-76
2022/01/26 20:20:50;;;;;;;11.80;8.20;;;;;;;;;;5033761;28;20029;-76
2022/01/26 20:23:16;;;;;;;10.98;7.93;;;;;;;;;;5017690;28;20033;-76
2022/01/26 20:25:43;;;;;;;11.18;8.27;;;;;;;;;;5034299;28;20048;-76
2022/01/26 20:28:10;;;;;;;10.85;7.90;;;;;;;;;;5034138;28;20034;-75
2022/01/26 20:30:40;;;;;;;13.00;8.35;;;;;;;;;;5017934;28;20082;-76
2022/01/26 20:33:05;;;;;;;13.57;8.50;;;;;;;;;;5017898;28;20033;-76
2022/01/26 20:35:31;;;;;;;10.65;7.45;;;;;;;;;;5000323;28;20488;-76
2022/01/26 20:37:56;;;;;;;11.80;8.80;;;;;;;;;;5022168;28;20482;-76
2022/01/26 20:40:21;;;;;;;12.20;9.52;;;;;;;;;;5035971;28;20037;-76
2022/01/26 20:42:47;;;;;;;11.82;8.38;;;;;;;;;;5053405;28;20051;-76
2022/01/26 20:45:20;;;;;;;13.40;9.88;;;;;;;;;;5020142;28;20040;-75
2022/01/26 20:47:45;;;;;;;11.50;8.68;;;;;;;;;;5019022;28;20041;-75
2022/01/26 20:50:10;;;;;;;14.23;8.85;;;;;;;;;;5033456;28;20043;-75
2022/01/26 20:52:37;;;;;;;12.18;8.70;;;;;;;;;;5053083;28;20070;-76
2022/01/26 20:55:05;;;;;;;10.32;8.60;;;;;;;;;;5037521;28;20388;-76
2022/01/26 20:57:30;;;;;;;13.20;8.15;;;;;;;;;;5033485;28;20044;-76
2022/01/26 20:59:55;;;;;;;11.70;7.72;;;;;;;;;;5030278;28;20025;-75
2022/01/26 21:02:21;;;;;;;14.30;8.13;;;;;;;;;;5043342;28;20033;-75
2022/01/26 21:04:47;;;;;;;11.32;8.05;;;;;;;;;;5017118;28;20033;-74
2022/01/26 21:07:12;;;;;;;11.38;7.88;;;;;;;;;;5034089;28;20071;-75
2022/01/26 21:09:37;;;;;;;11.20;8.32;;;;;;;;;;5031175;28;20059;-74
2022/01/26 21:12:03;;;;;;;10.55;7.80;;;;;;;;;;5052492;28;20040;-74
2022/01/26 21:14:29;;;;;;;8.63;7.30;;;;;;;;;;5023917;28;20090;-74
2022/01/26 21:16:55;;;;;;;9.88;6.68;;;;;;;;;;5053291;28;20064;-74
2022/01/26 21:19:21;;;;;;;11.57;8.05;;;;;;;;;;5036867;28;20119;-73
2022/01/26 21:21:46;;;;;;;10.23;7.70;;;;;;;;;;5037424;28;20498;-74
2022/01/26 21:24:11;;;;;;;11.05;7.18;;;;;;;;;;4988444;28;20051;-73
2022/01/26 21:26:37;;;;;;;9.82;7.53;;;;;;;;;;5046902;28;20037;-74
2022/01/26 21:29:02;;;;;;;11.05;7.45;;;;;;;;;;5020992;28;20059;-74
2022/01/26 21:31:28;;;;;;;10.23;7.05;;;;;;;;;;5020107;28;20041;-73
2022/01/26 21:33:53;;;;;;;9.70;6.60;;;;;;;;;;5021861;28;20090;-74
2022/01/26 21:36:19;;;;;;;11.25;6.63;;;;;;;;;;5024200;28;20044;-73
2022/01/26 21:38:46;;;;;;;9.10;6.85;;;;;;;;;;5020616;28;20091;-74
2022/01/26 21:41:12;;;;;;;10.00;6.55;;;;;;;;;;5020770;28;20112;-74
2022/01/26 21:43:37;;;;;;;8.88;6.75;;;;;;;;;;5031363;28;20119;-74
2022/01/26 21:46:03;;;;;;;8.70;6.88;;;;;;;;;;5040371;28;20051;-74
2022/01/26 21:48:28;;;;;;;8.20;6.63;;;;;;;;;;5039884;28;20445;-74
2022/01/26 21:50:54;;;;;;;8.43;6.88;;;;;;;;;;5008684;28;20041;-74
2022/01/26 21:53:20;;;;;;;7.70;6.50;;;;;;;;;;5056553;28;20064;-74